sensor_id;sensor_type;location;lat;lon;timestamp;temperature;humidity
23556;DHT22;11956;53.184;8.578;2022-12-07T00:02:17;3.90;99.90
23556;DHT22;11956;53.184;8.578;2022-12-07T00:05:18;3.90;99.90
23556;DHT22;11956;53.184;8.578;2022-12-07T00:08:19;3.80;99.90
23556;DHT22;11956;53.184;8.578;2022-12-07T00:11:21;3.80;99.90
23556;DHT22;11956;53.184;8.578;2022-12-07T00:14:22;3.80;99.90
23556;DHT22;11956;53.184;8.578;2022-12-07T00:17:23;3.70;99.90
23556;DHT22;11956;53.184;8.578;2022-12-07T00:20:24;3.70;99.90
23556;DHT22;11956;53.184;8.578;2022-12-07T00:23:25;3.80;99.90
23556;DHT22;11956;53.184;8.578;2022-12-07T00:26:28;3.90;99.90
23556;DHT22;11956;53.184;8.578;2022-12-07T00:29:35;4.00;99.90
23556;DHT22;11956;53.184;8.578;2022-12-07T00:32:37;4.00;99.90
23556;DHT22;11956;53.184;8.578;2022-12-07T00:35:38;4.10;99.90
23556;DHT22;11956;53.184;8.578;2022-12-07T00:38:39;4.10;99.90
23556;DHT22;11956;53.184;8.578;2022-12-07T00:41:40;4.00;99.90
23556;DHT22;11956;53.184;8.578;2022-12-07T00:44:41;3.90;99.90
23556;DHT22;11956;53.184;8.578;2022-12-07T00:47:42;3.90;99.90
23556;DHT22;11956;53.184;8.578;2022-12-07T00:50:43;3.80;99.90
23556;DHT22;11956;53.184;8.578;2022-12-07T00:53:44;3.80;99.90
23556;DHT22;11956;53.184;8.578;2022-12-07T00:56:45;3.80;99.90
23556;DHT22;11956;53.184;8.578;2022-12-07T00:59:46;3.80;99.90
23556;DHT22;11956;53.184;8.578;2022-12-07T01:02:47;3.80;99.90
23556;DHT22;11956;53.184;8.578;2022-12-07T01:05:52;3.90;99.90
23556;DHT22;11956;53.184;8.578;2022-12-07T01:08:54;3.90;99.90
23556;DHT22;11956;53.184;8.578;2022-12-07T01:11:55;3.90;99.90
23556;DHT22;11956;53.184;8.578;2022-12-07T01:14:56;4.00;99.90
23556;DHT22;11956;53.184;8.578;2022-12-07T01:17:57;4.00;99.90
23556;DHT22;11956;53.184;8.578;2022-12-07T01:21:06;4.10;99.90
23556;DHT22;11956;53.184;8.578;2022-12-07T01:24:10;4.10;99.90
23556;DHT22;11956;53.184;8.578;2022-12-07T01:27:12;4.10;99.90
23556;DHT22;11956;53.184;8.578;2022-12-07T01:30:13;4.00;99.90
23556;DHT22;11956;53.184;8.578;2022-12-07T01:33:14;4.00;99.90
23556;DHT22;11956;53.184;8.578;2022-12-07T01:36:20;3.90;99.90
23556;DHT22;11956;53.184;8.578;2022-12-07T01:39:23;3.80;99.90
23556;DHT22;11956;53.184;8.578;2022-12-07T01:42:24;3.70;99.90
23556;DHT22;11956;53.184;8.578;2022-12-07T01:45:37;3.70;99.90
23556;DHT22;11956;53.184;8.578;2022-12-07T01:48:41;3.70;99.90
23556;DHT22;11956;53.184;8.578;2022-12-07T01:51:43;3.60;99.90
23556;DHT22;11956;53.184;8.578;2022-12-07T01:54:47;3.50;99.90
23556;DHT22;11956;53.184;8.578;2022-12-07T01:57:50;3.50;99.90
23556;DHT22;11956;53.184;8.578;2022-12-07T02:00:53;3.40;99.90
23556;DHT22;11956;53.184;8.578;2022-12-07T02:03:54;3.40;99.90
23556;DHT22;11956;53.184;8.578;2022-12-07T02:06:55;3.30;99.90
23556;DHT22;11956;53.184;8.578;2022-12-07T02:09:56;3.30;99.90
23556;DHT22;11956;53.184;8.578;2022-12-07T02:27:39;3.20;99.90
23556;DHT22;11956;53.184;8.578;2022-12-07T02:30:27;3.20;99.90
23556;DHT22;11956;53.184;8.578;2022-12-07T02:33:36;3.30;99.90
23556;DHT22;11956;53.184;8.578;2022-12-07T02:36:43;3.30;99.90
23556;DHT22;11956;53.184;8.578;2022-12-07T02:39:52;3.40;99.90
23556;DHT22;11956;53.184;8.578;2022-12-07T02:43:09;3.40;99.90
23556;DHT22;11956;53.184;8.578;2022-12-07T02:46:26;3.40;99.90
23556;DHT22;11956;53.184;8.578;2022-12-07T02:49:30;3.40;99.90
23556;DHT22;11956;53.184;8.578;2022-12-07T02:52:32;3.50;99.90
23556;DHT22;11956;53.184;8.578;2022-12-07T02:55:40;3.60;99.90
23556;DHT22;11956;53.184;8.578;2022-12-07T03:06:39;3.80;99.90
23556;DHT22;11956;53.184;8.578;2022-12-07T03:19:16;3.80;99.90
23556;DHT22;11956;53.184;8.578;2022-12-07T03:22:19;3.90;99.90
23556;DHT22;11956;53.184;8.578;2022-12-07T03:25:22;3.90;99.90
23556;DHT22;11956;53.184;8.578;2022-12-07T03:28:25;4.10;99.90
23556;DHT22;11956;53.184;8.578;2022-12-07T03:31:32;4.00;99.90
23556;DHT22;11956;53.184;8.578;2022-12-07T03:35:00;4.10;99.90
23556;DHT22;11956;53.184;8.578;2022-12-07T03:38:21;4.20;99.90
23556;DHT22;11956;53.184;8.578;2022-12-07T03:41:26;4.10;99.90
23556;DHT22;11956;53.184;8.578;2022-12-07T03:44:29;4.00;99.90
23556;DHT22;11956;53.184;8.578;2022-12-07T03:47:35;4.10;99.90
23556;DHT22;11956;53.184;8.578;2022-12-07T03:51:00;4.10;99.90
23556;DHT22;11956;53.184;8.578;2022-12-07T03:54:19;4.10;99.90
23556;DHT22;11956;53.184;8.578;2022-12-07T03:57:25;4.00;99.90
23556;DHT22;11956;53.184;8.578;2022-12-07T04:00:28;4.00;99.90
23556;DHT22;11956;53.184;8.578;2022-12-07T04:03:29;4.00;99.90
23556;DHT22;11956;53.184;8.578;2022-12-07T04:06:30;3.90;99.90
23556;DHT22;11956;53.184;8.578;2022-12-07T04:09:31;3.90;99.90
23556;DHT22;11956;53.184;8.578;2022-12-07T04:12:32;4.00;99.90
23556;DHT22;11956;53.184;8.578;2022-12-07T04:15:33;3.90;99.90
23556;DHT22;11956;53.184;8.578;2022-12-07T04:18:34;3.80;99.90
23556;DHT22;11956;53.184;8.578;2022-12-07T04:21:35;3.80;99.90
23556;DHT22;11956;53.184;8.578;2022-12-07T04:24:35;3.90;99.90
23556;DHT22;11956;53.184;8.578;2022-12-07T04:27:36;3.90;99.90
23556;DHT22;11956;53.184;8.578;2022-12-07T04:30:38;3.90;99.90
23556;DHT22;11956;53.184;8.578;2022-12-07T04:33:38;3.90;99.90
23556;DHT22;11956;53.184;8.578;2022-12-07T04:36:40;3.90;99.90
23556;DHT22;11956;53.184;8.578;2022-12-07T04:39:41;3.90;99.90
23556;DHT22;11956;53.184;8.578;2022-12-07T04:42:44;3.90;99.90
23556;DHT22;11956;53.184;8.578;2022-12-07T04:45:48;3.90;99.90
23556;DHT22;11956;53.184;8.578;2022-12-07T04:48:50;3.90;99.90
23556;DHT22;11956;53.184;8.578;2022-12-07T04:51:51;3.90;99.90
23556;DHT22;11956;53.184;8.578;2022-12-07T04:54:52;3.80;99.90
23556;DHT22;11956;53.184;8.578;2022-12-07T04:57:53;3.70;99.90
23556;DHT22;11956;53.184;8.578;2022-12-07T05:00:55;3.70;99.90
23556;DHT22;11956;53.184;8.578;2022-12-07T05:03:56;3.60;99.90
23556;DHT22;11956;53.184;8.578;2022-12-07T05:06:57;3.50;99.90
23556;DHT22;11956;53.184;8.578;2022-12-07T05:09:58;3.40;99.90
23556;DHT22;11956;53.184;8.578;2022-12-07T05:12:59;3.30;99.90
23556;DHT22;11956;53.184;8.578;2022-12-07T05:16:00;3.20;99.90
23556;DHT22;11956;53.184;8.578;2022-12-07T05:19:01;3.20;99.90
23556;DHT22;11956;53.184;8.578;2022-12-07T05:22:02;3.10;99.90
23556;DHT22;11956;53.184;8.578;2022-12-07T05:25:04;3.10;99.90
23556;DHT22;11956;53.184;8.578;2022-12-07T05:28:05;3.10;99.90
23556;DHT22;11956;53.184;8.578;2022-12-07T05:31:06;3.10;99.90
23556;DHT22;11956;53.184;8.578;2022-12-07T05:34:07;3.10;99.90
23556;DHT22;11956;53.184;8.578;2022-12-07T05:37:08;3.10;99.90
23556;DHT22;11956;53.184;8.578;2022-12-07T05:40:10;3.20;99.90
23556;DHT22;11956;53.184;8.578;2022-12-07T05:43:11;3.30;99.90
23556;DHT22;11956;53.184;8.578;2022-12-07T05:46:12;3.30;99.90
23556;DHT22;11956;53.184;8.578;2022-12-07T05:49:13;3.40;99.90
23556;DHT22;11956;53.184;8.578;2022-12-07T05:52:14;3.40;99.90
23556;DHT22;11956;53.184;8.578;2022-12-07T05:55:15;3.40;99.90
23556;DHT22;11956;53.184;8.578;2022-12-07T05:58:16;3.30;99.90
23556;DHT22;11956;53.184;8.578;2022-12-07T06:01:35;3.30;99.90
23556;DHT22;11956;53.184;8.578;2022-12-07T06:04:38;3.30;99.90
23556;DHT22;11956;53.184;8.578;2022-12-07T06:07:44;3.20;99.90
23556;DHT22;11956;53.184;8.578;2022-12-07T06:10:46;3.20;99.90
23556;DHT22;11956;53.184;8.578;2022-12-07T06:14:08;3.20;99.90
23556;DHT22;11956;53.184;8.578;2022-12-07T06:17:09;3.20;99.90
23556;DHT22;11956;53.184;8.578;2022-12-07T06:20:10;3.30;99.90
23556;DHT22;11956;53.184;8.578;2022-12-07T06:23:11;3.30;99.90
23556;DHT22;11956;53.184;8.578;2022-12-07T06:26:12;3.30;99.90
23556;DHT22;11956;53.184;8.578;2022-12-07T06:29:14;3.30;99.90
23556;DHT22;11956;53.184;8.578;2022-12-07T06:32:18;3.30;99.90
23556;DHT22;11956;53.184;8.578;2022-12-07T06:35:19;3.40;99.90
23556;DHT22;11956;53.184;8.578;2022-12-07T06:38:20;3.40;99.90
23556;DHT22;11956;53.184;8.578;2022-12-07T06:41:21;3.40;99.90
23556;DHT22;11956;53.184;8.578;2022-12-07T06:44:23;3.30;99.90
23556;DHT22;11956;53.184;8.578;2022-12-07T06:47:24;3.30;99.90
23556;DHT22;11956;53.184;8.578;2022-12-07T06:50:25;3.40;99.90
23556;DHT22;11956;53.184;8.578;2022-12-07T06:53:26;3.40;99.90
23556;DHT22;11956;53.184;8.578;2022-12-07T06:56:27;3.50;99.90
23556;DHT22;11956;53.184;8.578;2022-12-07T06:59:29;3.50;99.90
23556;DHT22;11956;53.184;8.578;2022-12-07T07:02:30;3.60;99.90
23556;DHT22;11956;53.184;8.578;2022-12-07T07:05:30;3.50;99.90
23556;DHT22;11956;53.184;8.578;2022-12-07T07:08:31;3.50;99.90
23556;DHT22;11956;53.184;8.578;2022-12-07T07:11:32;3.40;99.90
23556;DHT22;11956;53.184;8.578;2022-12-07T07:14:33;3.40;99.90
23556;DHT22;11956;53.184;8.578;2022-12-07T07:17:34;3.30;99.90
23556;DHT22;11956;53.184;8.578;2022-12-07T07:20:35;3.20;99.90
23556;DHT22;11956;53.184;8.578;2022-12-07T07:23:36;3.20;99.90
23556;DHT22;11956;53.184;8.578;2022-12-07T07:26:37;3.00;99.90
23556;DHT22;11956;53.184;8.578;2022-12-07T07:29:38;3.00;99.90
23556;DHT22;11956;53.184;8.578;2022-12-07T07:32:38;3.00;99.90
23556;DHT22;11956;53.184;8.578;2022-12-07T07:35:40;3.00;99.90
23556;DHT22;11956;53.184;8.578;2022-12-07T07:38:41;3.00;99.90
23556;DHT22;11956;53.184;8.578;2022-12-07T07:41:42;3.00;99.90
23556;DHT22;11956;53.184;8.578;2022-12-07T07:44:47;3.00;99.90
23556;DHT22;11956;53.184;8.578;2022-12-07T07:47:48;3.00;99.90
23556;DHT22;11956;53.184;8.578;2022-12-07T07:50:49;3.10;99.90
23556;DHT22;11956;53.184;8.578;2022-12-07T07:53:51;3.10;99.90
23556;DHT22;11956;53.184;8.578;2022-12-07T07:56:52;3.10;99.90
23556;DHT22;11956;53.184;8.578;2022-12-07T07:59:53;3.10;99.90
23556;DHT22;11956;53.184;8.578;2022-12-07T08:02:54;3.20;99.90
23556;DHT22;11956;53.184;8.578;2022-12-07T08:05:55;3.30;99.90
23556;DHT22;11956;53.184;8.578;2022-12-07T08:08:56;3.30;99.90
23556;DHT22;11956;53.184;8.578;2022-12-07T08:11:58;3.30;99.90
23556;DHT22;11956;53.184;8.578;2022-12-07T08:14:59;3.40;99.90
23556;DHT22;11956;53.184;8.578;2022-12-07T08:18:00;3.40;99.90
23556;DHT22;11956;53.184;8.578;2022-12-07T08:21:01;3.40;99.90
23556;DHT22;11956;53.184;8.578;2022-12-07T08:24:02;3.40;99.90
23556;DHT22;11956;53.184;8.578;2022-12-07T08:27:03;3.50;99.90
23556;DHT22;11956;53.184;8.578;2022-12-07T08:30:05;3.40;99.90
23556;DHT22;11956;53.184;8.578;2022-12-07T08:33:06;3.50;99.90
23556;DHT22;11956;53.184;8.578;2022-12-07T08:36:09;3.40;99.90
23556;DHT22;11956;53.184;8.578;2022-12-07T08:39:11;3.50;99.90
23556;DHT22;11956;53.184;8.578;2022-12-07T08:42:12;3.60;99.90
23556;DHT22;11956;53.184;8.578;2022-12-07T08:45:14;3.60;99.90
23556;DHT22;11956;53.184;8.578;2022-12-07T08:48:15;3.70;99.90
23556;DHT22;11956;53.184;8.578;2022-12-07T08:51:23;3.70;99.90
23556;DHT22;11956;53.184;8.578;2022-12-07T08:54:24;3.60;99.90
23556;DHT22;11956;53.184;8.578;2022-12-07T08:57:27;3.70;99.90
23556;DHT22;11956;53.184;8.578;2022-12-07T09:00:28;3.80;99.90
23556;DHT22;11956;53.184;8.578;2022-12-07T09:03:29;3.90;99.90
23556;DHT22;11956;53.184;8.578;2022-12-07T09:06:30;4.00;99.90
23556;DHT22;11956;53.184;8.578;2022-12-07T09:09:31;4.20;99.90
23556;DHT22;11956;53.184;8.578;2022-12-07T09:12:32;4.40;99.90
23556;DHT22;11956;53.184;8.578;2022-12-07T09:15:32;4.50;99.90
23556;DHT22;11956;53.184;8.578;2022-12-07T09:18:33;4.70;99.90
23556;DHT22;11956;53.184;8.578;2022-12-07T09:21:34;4.70;99.90
23556;DHT22;11956;53.184;8.578;2022-12-07T09:24:36;4.80;99.90
23556;DHT22;11956;53.184;8.578;2022-12-07T09:27:37;4.90;99.90
23556;DHT22;11956;53.184;8.578;2022-12-07T09:30:37;4.90;99.90
23556;DHT22;11956;53.184;8.578;2022-12-07T09:33:38;4.90;99.90
23556;DHT22;11956;53.184;8.578;2022-12-07T09:36:39;4.80;99.90
23556;DHT22;11956;53.184;8.578;2022-12-07T09:39:41;4.70;99.90
23556;DHT22;11956;53.184;8.578;2022-12-07T09:42:45;4.60;99.90
23556;DHT22;11956;53.184;8.578;2022-12-07T09:45:51;4.90;99.90
23556;DHT22;11956;53.184;8.578;2022-12-07T09:48:54;6.60;99.90
23556;DHT22;11956;53.184;8.578;2022-12-07T09:52:03;7.50;99.90
23556;DHT22;11956;53.184;8.578;2022-12-07T09:55:27;9.20;99.90
23556;DHT22;11956;53.184;8.578;2022-12-07T09:58:30;10.30;99.90
23556;DHT22;11956;53.184;8.578;2022-12-07T10:01:33;9.70;99.90
23556;DHT22;11956;53.184;8.578;2022-12-07T10:04:34;9.50;99.90
23556;DHT22;11956;53.184;8.578;2022-12-07T10:07:37;8.60;99.90
23556;DHT22;11956;53.184;8.578;2022-12-07T10:10:39;8.40;99.90
23556;DHT22;11956;53.184;8.578;2022-12-07T10:13:42;8.00;99.90
23556;DHT22;11956;53.184;8.578;2022-12-07T10:16:46;7.30;99.90
23556;DHT22;11956;53.184;8.578;2022-12-07T10:19:47;6.70;99.90
23556;DHT22;11956;53.184;8.578;2022-12-07T10:23:15;6.30;99.90
23556;DHT22;11956;53.184;8.578;2022-12-07T10:26:33;6.00;99.90
23556;DHT22;11956;53.184;8.578;2022-12-07T10:29:54;5.80;99.90
23556;DHT22;11956;53.184;8.578;2022-12-07T10:32:55;5.60;99.90
23556;DHT22;11956;53.184;8.578;2022-12-07T10:35:57;5.50;99.90
23556;DHT22;11956;53.184;8.578;2022-12-07T10:42:04;5.80;99.90
23556;DHT22;11956;53.184;8.578;2022-12-07T10:48:30;5.90;99.90
23556;DHT22;11956;53.184;8.578;2022-12-07T11:13:16;5.50;99.90
23556;DHT22;11956;53.184;8.578;2022-12-07T11:23:02;6.20;99.90
23556;DHT22;11956;53.184;8.578;2022-12-07T11:26:18;6.30;99.90
23556;DHT22;11956;53.184;8.578;2022-12-07T11:39:37;6.70;99.90
23556;DHT22;11956;53.184;8.578;2022-12-07T11:42:55;6.70;99.90
23556;DHT22;11956;53.184;8.578;2022-12-07T11:46:10;6.70;99.90
23556;DHT22;11956;53.184;8.578;2022-12-07T11:49:21;6.60;99.90
23556;DHT22;11956;53.184;8.578;2022-12-07T11:52:50;6.70;99.90
23556;DHT22;11956;53.184;8.578;2022-12-07T11:56:15;6.90;99.90
23556;DHT22;11956;53.184;8.578;2022-12-07T11:59:43;7.00;99.90
23556;DHT22;11956;53.184;8.578;2022-12-07T12:03:05;7.20;99.90
23556;DHT22;11956;53.184;8.578;2022-12-07T12:06:12;7.40;99.90
23556;DHT22;11956;53.184;8.578;2022-12-07T12:09:27;7.40;99.90
23556;DHT22;11956;53.184;8.578;2022-12-07T12:26:19;6.70;99.90
23556;DHT22;11956;53.184;8.578;2022-12-07T12:29:33;6.30;99.90
23556;DHT22;11956;53.184;8.578;2022-12-07T12:32:41;6.10;99.90
23556;DHT22;11956;53.184;8.578;2022-12-07T12:35:43;5.80;99.90
23556;DHT22;11956;53.184;8.578;2022-12-07T12:42:20;5.50;99.90
23556;DHT22;11956;53.184;8.578;2022-12-07T12:48:32;5.40;99.90
23556;DHT22;11956;53.184;8.578;2022-12-07T12:51:41;5.50;99.90
23556;DHT22;11956;53.184;8.578;2022-12-07T12:55:11;5.50;99.90
23556;DHT22;11956;53.184;8.578;2022-12-07T13:01:38;5.80;99.90
23556;DHT22;11956;53.184;8.578;2022-12-07T13:05:00;5.90;99.90
23556;DHT22;11956;53.184;8.578;2022-12-07T13:08:17;6.00;99.90
23556;DHT22;11956;53.184;8.578;2022-12-07T13:11:49;6.20;99.90
23556;DHT22;11956;53.184;8.578;2022-12-07T13:14:56;6.30;99.90
23556;DHT22;11956;53.184;8.578;2022-12-07T13:18:00;6.20;99.90
23556;DHT22;11956;53.184;8.578;2022-12-07T13:24:12;6.20;99.90
23556;DHT22;11956;53.184;8.578;2022-12-07T13:27:13;6.20;99.90
23556;DHT22;11956;53.184;8.578;2022-12-07T13:30:17;6.30;99.90
23556;DHT22;11956;53.184;8.578;2022-12-07T13:33:20;6.30;99.90
23556;DHT22;11956;53.184;8.578;2022-12-07T13:36:25;6.30;99.90
23556;DHT22;11956;53.184;8.578;2022-12-07T13:39:28;6.30;99.90
23556;DHT22;11956;53.184;8.578;2022-12-07T13:42:34;6.40;99.90
23556;DHT22;11956;53.184;8.578;2022-12-07T13:45:36;6.50;99.90
23556;DHT22;11956;53.184;8.578;2022-12-07T13:48:50;6.50;99.90
23556;DHT22;11956;53.184;8.578;2022-12-07T13:51:52;6.40;99.90
23556;DHT22;11956;53.184;8.578;2022-12-07T13:54:59;6.40;99.90
23556;DHT22;11956;53.184;8.578;2022-12-07T13:58:08;6.40;99.90
23556;DHT22;11956;53.184;8.578;2022-12-07T14:01:09;6.40;99.90
23556;DHT22;11956;53.184;8.578;2022-12-07T14:04:28;6.20;99.90
23556;DHT22;11956;53.184;8.578;2022-12-07T14:07:30;6.10;99.90
23556;DHT22;11956;53.184;8.578;2022-12-07T14:10:37;6.00;99.90
23556;DHT22;11956;53.184;8.578;2022-12-07T14:14:00;5.90;99.90
23556;DHT22;11956;53.184;8.578;2022-12-07T14:17:18;5.80;99.90
23556;DHT22;11956;53.184;8.578;2022-12-07T14:20:36;5.80;99.90
23556;DHT22;11956;53.184;8.578;2022-12-07T14:23:39;5.70;99.90
23556;DHT22;11956;53.184;8.578;2022-12-07T14:26:41;5.50;99.90
23556;DHT22;11956;53.184;8.578;2022-12-07T14:29:45;5.40;99.90
23556;DHT22;11956;53.184;8.578;2022-12-07T14:32:50;5.30;99.90
23556;DHT22;11956;53.184;8.578;2022-12-07T14:35:54;5.10;99.90
23556;DHT22;11956;53.184;8.578;2022-12-07T14:38:56;5.00;99.90
23556;DHT22;11956;53.184;8.578;2022-12-07T14:41:58;4.90;99.90
23556;DHT22;11956;53.184;8.578;2022-12-07T14:44:59;4.80;99.90
23556;DHT22;11956;53.184;8.578;2022-12-07T14:48:00;4.80;99.90
23556;DHT22;11956;53.184;8.578;2022-12-07T14:51:01;4.60;99.90
23556;DHT22;11956;53.184;8.578;2022-12-07T14:54:03;4.50;99.90
23556;DHT22;11956;53.184;8.578;2022-12-07T14:57:05;4.40;99.90
23556;DHT22;11956;53.184;8.578;2022-12-07T15:00:09;4.30;99.90
23556;DHT22;11956;53.184;8.578;2022-12-07T15:03:14;4.30;99.90
23556;DHT22;11956;53.184;8.578;2022-12-07T15:06:16;4.20;99.90
23556;DHT22;11956;53.184;8.578;2022-12-07T15:09:18;4.10;99.90
23556;DHT22;11956;53.184;8.578;2022-12-07T15:12:19;4.10;99.90
23556;DHT22;11956;53.184;8.578;2022-12-07T15:15:20;4.00;99.90
23556;DHT22;11956;53.184;8.578;2022-12-07T15:18:22;3.90;99.90
23556;DHT22;11956;53.184;8.578;2022-12-07T15:21:23;3.90;99.90
23556;DHT22;11956;53.184;8.578;2022-12-07T15:24:25;3.90;99.90
23556;DHT22;11956;53.184;8.578;2022-12-07T15:27:26;3.80;99.90
23556;DHT22;11956;53.184;8.578;2022-12-07T15:30:27;3.80;99.90
23556;DHT22;11956;53.184;8.578;2022-12-07T15:33:28;3.80;99.90
23556;DHT22;11956;53.184;8.578;2022-12-07T15:36:30;3.70;99.90
23556;DHT22;11956;53.184;8.578;2022-12-07T15:39:32;3.70;99.90
23556;DHT22;11956;53.184;8.578;2022-12-07T15:42:33;3.80;99.90
23556;DHT22;11956;53.184;8.578;2022-12-07T15:45:35;3.80;99.90
23556;DHT22;11956;53.184;8.578;2022-12-07T15:48:36;3.80;99.90
23556;DHT22;11956;53.184;8.578;2022-12-07T15:51:37;3.80;99.90
23556;DHT22;11956;53.184;8.578;2022-12-07T15:54:38;3.80;99.90
23556;DHT22;11956;53.184;8.578;2022-12-07T15:57:39;3.80;99.90
23556;DHT22;11956;53.184;8.578;2022-12-07T16:00:40;3.80;99.90
23556;DHT22;11956;53.184;8.578;2022-12-07T16:03:42;3.80;99.90
23556;DHT22;11956;53.184;8.578;2022-12-07T16:06:44;3.80;99.90
23556;DHT22;11956;53.184;8.578;2022-12-07T16:09:45;3.80;99.90
23556;DHT22;11956;53.184;8.578;2022-12-07T16:12:47;3.80;99.90
23556;DHT22;11956;53.184;8.578;2022-12-07T16:15:48;3.80;99.90
23556;DHT22;11956;53.184;8.578;2022-12-07T16:18:49;3.80;99.90
23556;DHT22;11956;53.184;8.578;2022-12-07T16:21:51;3.80;99.90
23556;DHT22;11956;53.184;8.578;2022-12-07T16:24:52;3.90;99.90
23556;DHT22;11956;53.184;8.578;2022-12-07T16:27:53;4.00;99.90
23556;DHT22;11956;53.184;8.578;2022-12-07T16:31:07;4.00;99.90
23556;DHT22;11956;53.184;8.578;2022-12-07T16:34:10;4.00;99.90
23556;DHT22;11956;53.184;8.578;2022-12-07T16:37:11;4.00;99.90
23556;DHT22;11956;53.184;8.578;2022-12-07T16:40:12;4.00;99.90
23556;DHT22;11956;53.184;8.578;2022-12-07T16:43:13;4.00;99.90
23556;DHT22;11956;53.184;8.578;2022-12-07T16:46:14;3.80;99.90
23556;DHT22;11956;53.184;8.578;2022-12-07T16:49:16;3.80;99.90
23556;DHT22;11956;53.184;8.578;2022-12-07T16:52:19;3.80;99.90
23556;DHT22;11956;53.184;8.578;2022-12-07T16:55:21;3.70;99.90
23556;DHT22;11956;53.184;8.578;2022-12-07T16:58:22;3.70;99.90
23556;DHT22;11956;53.184;8.578;2022-12-07T17:01:23;3.60;99.90
23556;DHT22;11956;53.184;8.578;2022-12-07T17:04:23;3.60;99.90
23556;DHT22;11956;53.184;8.578;2022-12-07T17:07:24;3.50;99.90
23556;DHT22;11956;53.184;8.578;2022-12-07T17:10:25;3.50;99.90
23556;DHT22;11956;53.184;8.578;2022-12-07T17:13:26;3.40;99.90
23556;DHT22;11956;53.184;8.578;2022-12-07T17:16:46;3.30;99.90
23556;DHT22;11956;53.184;8.578;2022-12-07T17:19:47;3.20;99.90
23556;DHT22;11956;53.184;8.578;2022-12-07T17:22:48;3.10;99.90
23556;DHT22;11956;53.184;8.578;2022-12-07T17:25:49;3.10;99.90
23556;DHT22;11956;53.184;8.578;2022-12-07T17:28:50;3.00;99.90
23556;DHT22;11956;53.184;8.578;2022-12-07T17:31:51;2.90;99.90
23556;DHT22;11956;53.184;8.578;2022-12-07T17:34:52;2.80;99.90
23556;DHT22;11956;53.184;8.578;2022-12-07T17:37:52;2.80;99.90
23556;DHT22;11956;53.184;8.578;2022-12-07T17:40:53;2.80;99.90
23556;DHT22;11956;53.184;8.578;2022-12-07T17:43:54;2.80;99.90
23556;DHT22;11956;53.184;8.578;2022-12-07T17:46:56;2.70;99.90
23556;DHT22;11956;53.184;8.578;2022-12-07T17:49:58;2.70;99.90
23556;DHT22;11956;53.184;8.578;2022-12-07T17:52:59;2.70;99.90
23556;DHT22;11956;53.184;8.578;2022-12-07T17:56:12;2.60;99.90
23556;DHT22;11956;53.184;8.578;2022-12-07T17:59:13;2.60;99.90
23556;DHT22;11956;53.184;8.578;2022-12-07T18:02:15;2.60;99.90
23556;DHT22;11956;53.184;8.578;2022-12-07T18:05:16;2.60;99.90
23556;DHT22;11956;53.184;8.578;2022-12-07T18:08:17;2.80;99.90
23556;DHT22;11956;53.184;8.578;2022-12-07T18:11:18;2.80;99.90
23556;DHT22;11956;53.184;8.578;2022-12-07T18:14:19;2.90;99.90
23556;DHT22;11956;53.184;8.578;2022-12-07T18:17:19;3.00;99.90
23556;DHT22;11956;53.184;8.578;2022-12-07T18:20:20;3.10;99.90
23556;DHT22;11956;53.184;8.578;2022-12-07T18:23:21;3.20;99.90
23556;DHT22;11956;53.184;8.578;2022-12-07T18:26:24;3.20;99.90
23556;DHT22;11956;53.184;8.578;2022-12-07T18:29:25;3.20;99.90
23556;DHT22;11956;53.184;8.578;2022-12-07T18:32:26;3.30;99.90
23556;DHT22;11956;53.184;8.578;2022-12-07T18:35:30;3.30;99.90
23556;DHT22;11956;53.184;8.578;2022-12-07T18:38:34;3.30;99.90
23556;DHT22;11956;53.184;8.578;2022-12-07T18:41:37;3.30;99.90
23556;DHT22;11956;53.184;8.578;2022-12-07T18:44:39;3.40;99.90
23556;DHT22;11956;53.184;8.578;2022-12-07T18:47:39;3.30;99.90
23556;DHT22;11956;53.184;8.578;2022-12-07T18:50:42;3.30;99.90
23556;DHT22;11956;53.184;8.578;2022-12-07T18:53:43;3.30;99.90
23556;DHT22;11956;53.184;8.578;2022-12-07T18:56:44;3.30;99.90
23556;DHT22;11956;53.184;8.578;2022-12-07T18:59:45;3.30;99.90
23556;DHT22;11956;53.184;8.578;2022-12-07T19:02:46;3.20;99.90
23556;DHT22;11956;53.184;8.578;2022-12-07T19:05:47;3.20;99.90
23556;DHT22;11956;53.184;8.578;2022-12-07T19:08:48;3.20;99.90
23556;DHT22;11956;53.184;8.578;2022-12-07T19:11:49;3.20;99.90
23556;DHT22;11956;53.184;8.578;2022-12-07T19:14:50;3.20;99.90
23556;DHT22;11956;53.184;8.578;2022-12-07T19:17:51;3.20;99.90
23556;DHT22;11956;53.184;8.578;2022-12-07T19:20:52;3.20;99.90
23556;DHT22;11956;53.184;8.578;2022-12-07T19:23:53;3.10;99.90
23556;DHT22;11956;53.184;8.578;2022-12-07T19:26:55;3.20;99.90
23556;DHT22;11956;53.184;8.578;2022-12-07T19:29:57;3.20;99.90
23556;DHT22;11956;53.184;8.578;2022-12-07T19:33:04;3.20;99.90
23556;DHT22;11956;53.184;8.578;2022-12-07T19:36:05;3.10;99.90
23556;DHT22;11956;53.184;8.578;2022-12-07T19:39:06;3.10;99.90
23556;DHT22;11956;53.184;8.578;2022-12-07T19:42:08;3.10;99.90
23556;DHT22;11956;53.184;8.578;2022-12-07T19:45:09;3.10;99.90
23556;DHT22;11956;53.184;8.578;2022-12-07T19:48:11;3.10;99.90
23556;DHT22;11956;53.184;8.578;2022-12-07T19:51:12;3.10;99.90
23556;DHT22;11956;53.184;8.578;2022-12-07T19:54:14;3.10;99.90
23556;DHT22;11956;53.184;8.578;2022-12-07T19:57:17;3.10;99.90
23556;DHT22;11956;53.184;8.578;2022-12-07T20:00:18;3.20;99.90
23556;DHT22;11956;53.184;8.578;2022-12-07T20:03:20;3.20;99.90
23556;DHT22;11956;53.184;8.578;2022-12-07T20:06:21;3.20;99.90
23556;DHT22;11956;53.184;8.578;2022-12-07T20:09:23;3.10;99.90
23556;DHT22;11956;53.184;8.578;2022-12-07T20:12:24;3.10;99.90
23556;DHT22;11956;53.184;8.578;2022-12-07T20:15:44;3.10;99.90
23556;DHT22;11956;53.184;8.578;2022-12-07T20:18:45;3.10;99.90
23556;DHT22;11956;53.184;8.578;2022-12-07T20:21:48;3.10;99.90
23556;DHT22;11956;53.184;8.578;2022-12-07T20:24:50;3.00;99.90
23556;DHT22;11956;53.184;8.578;2022-12-07T20:27:50;3.00;99.90
23556;DHT22;11956;53.184;8.578;2022-12-07T20:30:52;3.00;99.90
23556;DHT22;11956;53.184;8.578;2022-12-07T20:33:53;3.00;99.90
23556;DHT22;11956;53.184;8.578;2022-12-07T20:36:55;3.10;99.90
23556;DHT22;11956;53.184;8.578;2022-12-07T20:39:56;3.10;99.90
23556;DHT22;11956;53.184;8.578;2022-12-07T20:42:57;3.10;99.90
23556;DHT22;11956;53.184;8.578;2022-12-07T20:45:59;3.10;99.90
23556;DHT22;11956;53.184;8.578;2022-12-07T20:49:00;3.10;99.90
23556;DHT22;11956;53.184;8.578;2022-12-07T20:52:02;3.20;99.90
23556;DHT22;11956;53.184;8.578;2022-12-07T20:55:03;3.10;99.90
23556;DHT22;11956;53.184;8.578;2022-12-07T20:58:05;3.20;99.90
23556;DHT22;11956;53.184;8.578;2022-12-07T21:01:06;3.20;99.90
23556;DHT22;11956;53.184;8.578;2022-12-07T21:04:07;3.20;99.90
23556;DHT22;11956;53.184;8.578;2022-12-07T21:07:10;3.20;99.90
23556;DHT22;11956;53.184;8.578;2022-12-07T21:10:11;3.30;99.90
23556;DHT22;11956;53.184;8.578;2022-12-07T21:13:12;3.30;99.90
23556;DHT22;11956;53.184;8.578;2022-12-07T21:16:21;3.40;99.90
23556;DHT22;11956;53.184;8.578;2022-12-07T21:19:24;3.40;99.90
23556;DHT22;11956;53.184;8.578;2022-12-07T21:22:25;3.50;99.90